Pintail — WDF5177 — position and weather

sailwx.info

Track history (hours):
 
Tides and Currents Weather Stations Pressure Air Temp Water Temp Dewpoint Dewpoint Depression Visibility Wind Speed Wind Dir Waves Ship Positions

Pintail

Owner: Pintail Marine Services, Inc, Friday Harbor, WA. More information available from US FCC via Universal Licensing System and Coast Guard Vessel Documentation Center.

Last reported at 2017-Jun-24 17:00 UTC. Time now 2017-Jun-24 17:08 UTC.
Position N 48°32' W 122°60'.

Length 19 m.

Type: Towing. MMSI: 367460260.

Date/timePositionNaut miles runAvg speedWind from/ knotsBaromVisibWave heightAir tempDewpointWater temp
2017-Jun-24 17:00N 48°32' W 122°60'0 0.0
2017-Jun-24 16:30N 48°32' W 122°60'0 0.0
2017-Jun-24 16:00N 48°32' W 122°60'0 0.0
2017-Jun-24 15:27N 48°32' W 122°60'0 0.0
2017-Jun-24 15:00N 48°32' W 122°60'0 0.0
2017-Jun-24 14:00N 48°32' W 122°60'0 0.0
2017-Jun-24 13:30N 48°32' W 122°60'0 0.0
2017-Jun-24 12:51N 48°32' W 122°60'0 0.0
2017-Jun-24 12:30N 48°32' W 122°60'0 0.0
2017-Jun-24 12:00N 48°32' W 122°60'0 0.0
2017-Jun-24 11:30N 48°32' W 122°60'0 0.0
2017-Jun-24 11:00N 48°32' W 122°60'0 0.0
2017-Jun-24 10:30N 48°32' W 122°60'0 0.0
2017-Jun-24 09:57N 48°32' W 122°60'0 0.0
2017-Jun-24 09:27N 48°32' W 122°60'0 0.0
2017-Jun-24 09:00N 48°32' W 122°60'0 0.0
2017-Jun-24 08:24N 48°32' W 122°60'0 0.0
2017-Jun-24 08:00N 48°32' W 122°60'0 0.0
2017-Jun-24 07:28N 48°32' W 122°60'0 0.0
2017-Jun-24 06:58N 48°32' W 122°60'0 0.0
2017-Jun-24 06:28N 48°32' W 122°60'0 0.0
2017-Jun-24 05:58N 48°32' W 122°60'0 0.0
2017-Jun-24 05:28N 48°32' W 122°60'0 0.0
2017-Jun-24 04:58N 48°32' W 122°60'0 0.0
2017-Jun-24 04:28N 48°32' W 122°60'0 0.0
2017-Jun-24 03:58N 48°32' W 122°60'0 0.0
2017-Jun-24 03:28N 48°32' W 122°60'1 1.2
2017-Jun-24 03:00N 48°32' W 122°60'2 4.9
2017-Jun-24 02:30N 48°33' W 122°56'3 5.6
2017-Jun-24 02:00N 48°34' W 122°52'3 2.5
2017-Jun-24 00:41N 48°31' W 122°50'1 5.6
2017-Jun-24 00:29N 48°32' W 122°51'3 5.5
2017-Jun-24 00:00N 48°34' W 122°53'6 3.2
2017-Jun-23 22:10N 48°35' W 123°01'1 4.8
2017-Jun-23 21:59N 48°35' W 123°01'3 6.1
2017-Jun-23 21:30N 48°32' W 122°60'0 0.4
2017-Jun-23 21:00N 48°32' W 122°60'2 4.0
2017-Jun-23 20:30N 48°32' W 122°57'3 5.7
2017-Jun-23 20:00N 48°34' W 122°54'2 4.6
2017-Jun-23 19:30N 48°33' W 122°50'3 5.2
2017-Jun-23 18:59N 48°32' W 122°47'2 0.6
2017-Jun-23 16:04N 48°32' W 122°44'1 6.7
2017-Jun-23 15:59N 48°32' W 122°45'2 4.9
2017-Jun-23 15:28N 48°32' W 122°49'3 7.1
2017-Jun-23 15:00N 48°34' W 122°52'6 5.5
2017-Jun-23 14:00N 48°32' W 122°60'0 0.0
2017-Jun-23 13:29N 48°32' W 122°60'0 0.0
2017-Jun-23 12:59N 48°32' W 122°60'0 0.0
2017-Jun-23 12:29N 48°32' W 122°60'0 0.0
2017-Jun-23 11:59N 48°32' W 122°60'0 0.0
2017-Jun-23 11:29N 48°32' W 122°60'0 0.0
2017-Jun-23 10:59N 48°32' W 122°60'0 0.0
2017-Jun-23 10:29N 48°32' W 122°60'0 0.0
2017-Jun-23 09:59N 48°32' W 122°60'0 0.0
2017-Jun-23 09:29N 48°32' W 122°60'0 0.0
2017-Jun-23 08:59N 48°32' W 122°60'0 0.0
2017-Jun-23 08:29N 48°32' W 122°60'0 0.0
2017-Jun-23 07:59N 48°32' W 122°60'0 0.0
2017-Jun-23 07:29N 48°32' W 122°60'0 0.0
2017-Jun-23 06:59N 48°32' W 122°60'0 0.0
2017-Jun-23 06:29N 48°32' W 122°60'0 0.0
2017-Jun-23 05:59N 48°32' W 122°60'0 0.0
2017-Jun-23 05:29N 48°32' W 122°60'0 0.0
2017-Jun-23 04:56N 48°32' W 122°60'0 0.0
2017-Jun-23 04:29N 48°32' W 122°60'0 0.0
2017-Jun-23 03:59N 48°32' W 122°60'0 0.0
2017-Jun-23 03:26N 48°32' W 122°60'0 0.0
2017-Jun-23 02:59N 48°32' W 122°60'0 0.0
2017-Jun-23 02:29N 48°32' W 122°60'1 1.7
2017-Jun-23 02:00N 48°33' W 122°60'1 0.2
2017-Jun-22 20:19N 48°34' W 123°00'2 4.8
2017-Jun-22 19:56N 48°32' W 122°60'0 0.1
2017-Jun-22 19:29N 48°32' W 123°00'0 0.2
2017-Jun-22 18:57N 48°32' W 122°60'0 0.0
2017-Jun-22 18:30N 48°32' W 122°60'0 0.0
2017-Jun-22 17:57N 48°32' W 122°60'0 0.0
2017-Jun-22 17:30N 48°32' W 122°60'0 0.0
2017-Jun-22 17:00N 48°32' W 122°60'0 0.0
2017-Jun-22 16:30N 48°32' W 122°60'0 0.0
2017-Jun-22 16:00N 48°32' W 122°60'0 0.0
2017-Jun-22 15:30N 48°32' W 122°60'0 0.0
2017-Jun-22 15:00N 48°32' W 122°60'0 0.0
2017-Jun-22 14:30N 48°32' W 122°60'0 0.0
2017-Jun-22 13:30N 48°32' W 122°60'0 0.0
2017-Jun-22 13:00N 48°32' W 122°60'0 0.0
2017-Jun-22 12:30N 48°32' W 122°60'0 0.0
2017-Jun-22 12:00N 48°32' W 122°60'0 0.0
2017-Jun-22 11:30N 48°32' W 122°60'0 0.0
2017-Jun-22 11:00N 48°32' W 122°60'0 0.0
2017-Jun-22 10:30N 48°32' W 122°60'0 0.0
2017-Jun-22 10:00N 48°32' W 122°60'0 0.0
2017-Jun-22 09:30N 48°32' W 122°60'0 0.0
2017-Jun-22 09:00N 48°32' W 122°60'0 0.0
2017-Jun-22 08:29N 48°32' W 122°60'0 0.0
2017-Jun-22 08:00N 48°32' W 122°60'0 0.0
2017-Jun-22 07:30N 48°32' W 122°60'0 0.0
2017-Jun-22 07:00N 48°32' W 122°60'0 0.0
2017-Jun-22 06:30N 48°32' W 122°60'0 0.0
2017-Jun-22 06:00N 48°32' W 122°60'0 0.0
2017-Jun-22 05:30N 48°32' W 122°60'0 0.0
2017-Jun-22 04:57N 48°32' W 122°60'0 0.0
2017-Jun-22 04:27N 48°32' W 122°60'0 0.0
2017-Jun-22 04:01N 48°32' W 122°60'0 0.0
2017-Jun-22 03:28N 48°32' W 122°60'0 0.0
2017-Jun-22 02:58N 48°32' W 122°60'0 0.0
2017-Jun-22 02:31N 48°32' W 122°60'0 0.0
2017-Jun-22 02:01N 48°32' W 122°60'0 0.0
2017-Jun-22 01:28N 48°32' W 122°60'0 0.0
2017-Jun-22 01:01N 48°32' W 122°60'0 0.0
2017-Jun-22 00:28N 48°32' W 122°60'0 0.0
2017-Jun-21 23:58N 48°32' W 122°60'0 0.0
2017-Jun-21 23:25N 48°32' W 122°60'0 0.2
2017-Jun-21 22:58N 48°32' W 123°00'1 1.1
2017-Jun-21 22:30N 48°32' W 123°00'0 0.0
2017-Jun-21 22:00N 48°32' W 123°00'0 0.8
2017-Jun-21 21:29N 48°32' W 122°60'3 5.1
2017-Jun-21 21:00N 48°33' W 122°56'3 5.7
2017-Jun-21 20:30N 48°34' W 122°53'3 6.5
2017-Jun-21 20:00N 48°32' W 122°49'4 1.3
2017-Jun-21 16:55N 48°32' W 122°44'3 6.2
2017-Jun-21 16:28N 48°32' W 122°48'3 6.3
2017-Jun-21 15:59N 48°34' W 122°52'2 5.0
2017-Jun-21 15:30N 48°33' W 122°55'3 6.6
2017-Jun-21 15:00N 48°32' W 122°60'0 0.8
2017-Jun-21 14:28N 48°32' W 122°60'0 0.0
2017-Jun-21 13:28N 48°32' W 122°60'0 0.0
2017-Jun-21 12:58N 48°32' W 122°60'0 0.0
2017-Jun-21 12:28N 48°32' W 122°60'0 0.0
2017-Jun-21 11:58N 48°32' W 122°60'0 0.0
2017-Jun-21 11:28N 48°32' W 122°60'0 0.0
2017-Jun-21 10:58N 48°32' W 122°60'0 0.0
2017-Jun-21 10:28N 48°32' W 122°60'0 0.0
2017-Jun-21 09:58N 48°32' W 122°60'0 0.0
2017-Jun-21 09:28N 48°32' W 122°60'0 0.0
2017-Jun-21 08:58N 48°32' W 122°60'0 0.0
2017-Jun-21 08:28N 48°32' W 122°60'0 0.0
2017-Jun-21 07:55N 48°32' W 122°60'0 0.0
2017-Jun-21 07:30N 48°32' W 122°60'0 0.0
2017-Jun-21 06:57N 48°32' W 122°60'0 0.0
2017-Jun-21 06:30N 48°32' W 122°60'0 0.0
2017-Jun-21 05:59N 48°32' W 122°60'0 0.0
2017-Jun-21 05:29N 48°32' W 122°60'0 0.0
2017-Jun-21 04:59N 48°32' W 122°60'0 0.0
2017-Jun-21 04:29N 48°32' W 122°60'0 0.0
2017-Jun-21 03:56N 48°32' W 122°60'0 0.0
2017-Jun-21 03:23N 48°32' W 122°60'0 0.0
2017-Jun-21 02:59N 48°32' W 122°60'0 0.0
2017-Jun-21 02:29N 48°32' W 122°60'0 0.0
2017-Jun-21 01:59N 48°32' W 122°60'0 0.0
2017-Jun-21 01:29N 48°32' W 122°60'0 0.0
2017-Jun-21 00:59N 48°32' W 122°60'0 0.0
2017-Jun-21 00:29N 48°32' W 122°60'0 0.0
2017-Jun-20 23:59N 48°32' W 122°60'0 0.6
2017-Jun-20 23:30N 48°32' W 122°60'3 5.4
2017-Jun-20 23:00N 48°33' W 122°56'0 0.7
2017-Jun-20 22:25N 48°33' W 122°56'0 0.0
2017-Jun-20 21:58N 48°33' W 122°56'1 1.9
2017-Jun-20 21:30N 48°33' W 122°57'2 4.9
2017-Jun-20 21:00N 48°32' W 123°00'0 0.2
2017-Jun-20 20:28N 48°32' W 122°60'0 0.0
2017-Jun-20 19:58N 48°32' W 122°60'0 0.0
2017-Jun-20 19:28N 48°32' W 122°60'0 0.0
2017-Jun-20 18:55N 48°32' W 122°60'0 0.0
2017-Jun-20 18:28N 48°32' W 122°60'0 0.8
2017-Jun-20 17:56N 48°32' W 123°00'0 0.9
2017-Jun-20 17:30N 48°32' W 122°60'0 0.1
2017-Jun-20 16:58N 48°32' W 122°60'0 0.0
2017-Jun-20 16:28N 48°32' W 122°60'0 0.0
2017-Jun-20 15:55N 48°32' W 122°60'0 0.0
2017-Jun-20 15:28N 48°32' W 122°60'0 0.0
2017-Jun-20 14:58N 48°32' W 122°60'0 0.0
2017-Jun-20 14:28N 48°32' W 122°60'0 0.0
2017-Jun-20 13:28N 48°32' W 122°60'0 0.0
2017-Jun-20 12:58N 48°32' W 122°60'0 0.0
2017-Jun-20 12:25N 48°32' W 122°60'0 0.0
2017-Jun-20 11:58N 48°32' W 122°60'0 0.0
2017-Jun-20 11:28N 48°32' W 122°60'0 0.0
2017-Jun-20 10:58N 48°32' W 122°60'0 0.0
2017-Jun-20 10:28N 48°32' W 122°60'0 0.0
2017-Jun-20 09:58N 48°32' W 122°60'0 0.0
2017-Jun-20 09:28N 48°32' W 122°60'0 0.0
2017-Jun-20 08:55N 48°32' W 122°60'0 0.0
2017-Jun-20 08:28N 48°32' W 122°60'0 0.0
2017-Jun-20 07:58N 48°32' W 122°60'0 0.0
2017-Jun-20 07:28N 48°32' W 122°60'0 0.0
2017-Jun-20 06:55N 48°32' W 122°60'0 0.0
2017-Jun-20 06:28N 48°32' W 122°60'0 0.0
2017-Jun-20 05:58N 48°32' W 122°60'0 0.0
2017-Jun-20 05:28N 48°32' W 122°60'0 0.0
2017-Jun-20 04:58N 48°32' W 122°60'0 0.0
2017-Jun-20 04:28N 48°32' W 122°60'0 0.0
2017-Jun-20 03:58N 48°32' W 122°60'0 0.0
2017-Jun-20 03:28N 48°32' W 122°60'1 3.0
2017-Jun-20 03:00N 48°33' W 122°58'3 6.2
2017-Jun-20 02:28N 48°34' W 122°54'2 4.8
2017-Jun-20 01:59N 48°32' W 122°51'2 1.8
2017-Jun-20 01:03N 48°31' W 122°50'1 5.8
2017-Jun-20 00:58N 48°31' W 122°50'3 5.7
2017-Jun-20 00:28N 48°34' W 122°52'2 4.8
2017-Jun-20 00:00N 48°33' W 122°55'3 5.6
2017-Jun-19 23:31N 48°32' W 122°59'0 0.9
2017-Jun-19 22:57N 48°32' W 123°00'0 0.3
2017-Jun-19 22:30N 48°32' W 123°00'3 5.3
2017-Jun-19 22:00N 48°33' W 122°56'1 2.8
2017-Jun-19 21:30N 48°33' W 122°54'3 6.1
2017-Jun-19 21:00N 48°32' W 122°59'1 2.3
2017-Jun-19 20:30N 48°32' W 122°60'2 5.0
2017-Jun-19 20:00N 48°33' W 122°57'3 4.9
2017-Jun-19 19:20N 48°34' W 122°52'2 5.9
2017-Jun-19 19:00N 48°33' W 122°50'8 5.3
2017-Jun-19 17:31N 48°31' W 122°38'0 5.1
2017-Jun-19 17:28N 48°31' W 122°38'1 1.9
2017-Jun-19 16:59N 48°31' W 122°36'3 5.9
2017-Jun-19 16:30N 48°32' W 122°40'3 5.6
2017-Jun-19 15:59N 48°32' W 122°45'3 5.8
2017-Jun-19 15:29N 48°32' W 122°49'3 6.5
2017-Jun-19 15:00N 48°34' W 122°53'5 4.7
2017-Jun-19 14:00N 48°32' W 122°59'1 1.9
2017-Jun-19 13:30N 48°32' W 122°60'0 0.0
2017-Jun-19 12:48N 48°32' W 122°60'0 0.0
2017-Jun-19 12:31N 48°32' W 122°60'0 0.0
2017-Jun-19 11:55N 48°32' W 122°60'0 0.0
2017-Jun-19 11:31N 48°32' W 122°60'0 0.0
2017-Jun-19 10:58N 48°32' W 122°60'0 0.0
2017-Jun-19 10:31N 48°32' W 122°60'0 0.0
2017-Jun-19 10:01N 48°32' W 122°60'0 0.0
2017-Jun-19 09:25N 48°32' W 122°60'0 0.0
2017-Jun-19 08:58N 48°32' W 122°60'0 0.0
2017-Jun-19 08:28N 48°32' W 122°60'0 0.0
2017-Jun-19 07:58N 48°32' W 122°60'0 0.0
2017-Jun-19 07:28N 48°32' W 122°60'0 0.0
2017-Jun-19 06:58N 48°32' W 122°60'0 0.0
2017-Jun-19 06:28N 48°32' W 122°60'0 0.0
2017-Jun-19 05:58N 48°32' W 122°60'0 0.0
2017-Jun-19 05:28N 48°32' W 122°60'0 0.0
2017-Jun-19 04:58N 48°32' W 122°60'0 0.0
2017-Jun-19 04:28N 48°32' W 122°60'0 0.0
2017-Jun-19 03:58N 48°32' W 122°60'0 0.0
2017-Jun-19 03:28N 48°32' W 122°60'0 0.0
2017-Jun-19 02:55N 48°32' W 122°60'0 0.0
2017-Jun-19 02:28N 48°32' W 122°60'0 0.0
2017-Jun-19 01:58N 48°32' W 122°60'2 5.1
2017-Jun-19 01:30N 48°33' W 122°57'3 6.2
2017-Jun-19 01:00N 48°34' W 122°53'3 3.2
2017-Jun-18 23:58N 48°31' W 122°50'3 6.4
2017-Jun-18 23:27N 48°32' W 122°45'4 6.6
2017-Jun-18 22:51N 48°32' W 122°39'2 4.9
2017-Jun-18 22:29N 48°31' W 122°36'1 1.1
2017-Jun-18 21:58N 48°31' W 122°36'0 0.0
2017-Jun-18 21:28N 48°31' W 122°36'0 0.0
2017-Jun-18 20:58N 48°31' W 122°36'0 0.0
2017-Jun-18 20:28N 48°31' W 122°36'0 0.0
2017-Jun-18 19:58N 48°31' W 122°36'0 0.0
2017-Jun-18 19:28N 48°31' W 122°36'0 0.0
2017-Jun-18 18:58N 48°31' W 122°36'0 0.0
2017-Jun-18 18:28N 48°31' W 122°36'0 0.0
2017-Jun-18 17:58N 48°31' W 122°36'0 0.0
2017-Jun-18 17:28N 48°31' W 122°36'0 0.0
2017-Jun-18 16:58N 48°31' W 122°36'0 0.0
2017-Jun-18 16:28N 48°31' W 122°36'0 0.0
2017-Jun-18 15:58N 48°31' W 122°36'0 0.0
2017-Jun-18 15:28N 48°31' W 122°36'0 0.0
2017-Jun-18 14:46N 48°31' W 122°36'0 0.0
2017-Jun-18 13:58N 48°31' W 122°36'0 0.0
2017-Jun-18 13:28N 48°31' W 122°36'0 0.0
2017-Jun-18 12:58N 48°31' W 122°36'0 0.0
2017-Jun-18 12:28N 48°31' W 122°36'0 0.0
2017-Jun-18 11:58N 48°31' W 122°36'0 0.0
2017-Jun-18 11:16N 48°31' W 122°36'0 0.0
2017-Jun-18 10:58N 48°31' W 122°36'0 0.0
2017-Jun-18 10:28N 48°31' W 122°36'0 0.0
2017-Jun-18 09:58N 48°31' W 122°36'0 0.0
2017-Jun-18 09:28N 48°31' W 122°36'0 0.0
2017-Jun-18 08:58N 48°31' W 122°36'0 0.0
2017-Jun-18 08:28N 48°31' W 122°36'0 0.0
2017-Jun-18 07:58N 48°31' W 122°36'0 0.0
2017-Jun-18 07:28N 48°31' W 122°36'0 0.0
2017-Jun-18 06:58N 48°31' W 122°36'0 0.0
2017-Jun-18 06:28N 48°31' W 122°36'0 0.0
2017-Jun-18 05:58N 48°31' W 122°36'0 0.0
2017-Jun-18 05:28N 48°31' W 122°36'0 0.0
2017-Jun-18 04:58N 48°31' W 122°36'0 0.0
2017-Jun-18 04:28N 48°31' W 122°36'0 0.0
2017-Jun-18 03:58N 48°31' W 122°36'0 0.0
2017-Jun-18 03:26N 48°31' W 122°36'0 0.0
2017-Jun-18 02:56N 48°31' W 122°36'0 0.0
2017-Jun-18 02:26N 48°31' W 122°36'0 0.0
2017-Jun-18 01:56N 48°31' W 122°36'0 0.0
2017-Jun-18 01:26N 48°31' W 122°36'0 0.0
2017-Jun-18 00:56N 48°31' W 122°36'0 0.0
2017-Jun-18 00:26N 48°31' W 122°36'1 1.1
2017-Jun-17 23:55N 48°31' W 122°36'1 3.5
2017-Jun-17 23:30N 48°31' W 122°38'4 5.7
2017-Jun-17 22:50N 48°32' W 122°44'3 6.1
2017-Jun-17 22:25N 48°32' W 122°48'2 6.0
2017-Jun-17 22:00N 48°33' W 122°51'2 4.7
2017-Jun-17 21:29N 48°34' W 122°55'3 5.5
2017-Jun-17 21:00N 48°33' W 122°58'1 2.9
2017-Jun-17 20:30N 48°32' W 123°00'0 0.2
2017-Jun-17 19:58N 48°32' W 122°60'0 0.0
2017-Jun-17 19:28N 48°32' W 122°60'0 0.0
2017-Jun-17 18:58N 48°32' W 122°60'0 0.0
2017-Jun-17 18:30N 48°32' W 122°60'0 0.0
2017-Jun-17 18:00N 48°32' W 122°60'0 0.1
2017-Jun-17 17:30N 48°32' W 122°60'1 2.0
2017-Jun-17 17:00N 48°32' W 122°59'3 6.0
2017-Jun-17 16:29N 48°33' W 122°54'2 4.1
2017-Jun-17 16:00N 48°34' W 122°51'3 5.5
2017-Jun-17 15:30N 48°32' W 122°48'3 5.7
2017-Jun-17 15:00N 48°32' W 122°44'3 6.2
2017-Jun-17 14:30N 48°32' W 122°39'2 1.9
2017-Jun-17 13:25N 48°31' W 122°36'0 0.0
2017-Jun-17 12:55N 48°31' W 122°36'0 0.0
2017-Jun-17 12:25N 48°31' W 122°36'0 0.0
2017-Jun-17 11:55N 48°31' W 122°36'0 0.0
2017-Jun-17 11:25N 48°31' W 122°36'0 0.0
2017-Jun-17 10:55N 48°31' W 122°36'0 0.0
2017-Jun-17 10:25N 48°31' W 122°36'0 0.0
2017-Jun-17 09:55N 48°31' W 122°36'0 0.0
2017-Jun-17 09:25N 48°31' W 122°36'0 0.0
2017-Jun-17 08:55N 48°31' W 122°36'0 0.0
2017-Jun-17 08:25N 48°31' W 122°36'0 0.0
2017-Jun-17 07:55N 48°31' W 122°36'0 0.0
2017-Jun-17 07:25N 48°31' W 122°36'0 0.0
2017-Jun-17 06:55N 48°31' W 122°36'0 0.0
2017-Jun-17 06:25N 48°31' W 122°36'0 0.0
2017-Jun-17 05:55N 48°31' W 122°36'0 0.0
2017-Jun-17 05:25N 48°31' W 122°36'0 0.0
2017-Jun-17 04:55N 48°31' W 122°36'0 0.0
2017-Jun-17 04:13N 48°31' W 122°36'0 0.0
2017-Jun-17 03:55N 48°31' W 122°36'0 0.0
2017-Jun-17 03:25N 48°31' W 122°36'0 0.0
2017-Jun-17 02:55N 48°31' W 122°36'0 0.0
2017-Jun-17 02:19N 48°31' W 122°36'0 0.0
2017-Jun-17 01:49N 48°31' W 122°36'0 0.0
2017-Jun-17 01:25N 48°31' W 122°36'0 0.0
2017-Jun-17 00:55N 48°31' W 122°36'1 1.3
2017-Jun-17 00:29N 48°31' W 122°36'6 6.6
2017-Jun-16 23:31N 48°32' W 122°46'0 6.1
2017-Jun-16 23:29N 48°32' W 122°46'3 6.1
2017-Jun-16 23:00N 48°33' W 122°50'3 5.6
2017-Jun-16 22:30N 48°34' W 122°54'4 6.6
2017-Jun-16 21:55N 48°32' W 122°59'1 1.5
2017-Jun-16 21:28N 48°32' W 122°60'0 0.0
2017-Jun-16 20:58N 48°32' W 122°60'0 0.0
2017-Jun-16 20:28N 48°32' W 122°60'0 0.0
2017-Jun-16 19:58N 48°32' W 122°60'0 0.0
2017-Jun-16 19:28N 48°32' W 122°60'0 0.0
2017-Jun-16 18:58N 48°32' W 122°60'0 0.0
2017-Jun-16 18:28N 48°32' W 122°60'0 0.2
2017-Jun-16 18:00N 48°32' W 122°60'2 4.5
2017-Jun-16 17:30N 48°33' W 122°57'3 6.0
2017-Jun-16 17:00N 48°34' W 122°53'4 3.3
2017-Jun-16 15:48N 48°31' W 122°50'2 5.7
2017-Jun-16 15:30N 48°32' W 122°51'2 4.7
2017-Jun-16 15:00N 48°34' W 122°54'5 5.0
2017-Jun-16 14:00N 48°32' W 123°00'0 0.2
2017-Jun-16 13:28N 48°32' W 122°60'0 0.0
2017-Jun-16 12:58N 48°32' W 122°60'0 0.0
2017-Jun-16 12:28N 48°32' W 122°60'0 0.0
2017-Jun-16 11:58N 48°32' W 122°60'0 0.0
2017-Jun-16 11:28N 48°32' W 122°60'0 0.0
2017-Jun-16 10:58N 48°32' W 122°60'0 0.0
2017-Jun-16 10:28N 48°32' W 122°60'0 0.0
2017-Jun-16 09:58N 48°32' W 122°60'0 0.0
2017-Jun-16 09:22N 48°32' W 122°60'0 0.0
2017-Jun-16 08:58N 48°32' W 122°60'0 0.0
2017-Jun-16 08:28N 48°32' W 122°60'0 0.0
2017-Jun-16 07:58N 48°32' W 122°60'0 0.0
2017-Jun-16 07:28N 48°32' W 122°60'0 0.0
2017-Jun-16 06:58N 48°32' W 122°60'0 0.0
2017-Jun-16 06:28N 48°32' W 122°60'0 0.6
2017-Jun-16 06:00N 48°32' W 122°60'3 5.3
2017-Jun-16 05:30N 48°33' W 122°56'5 6.3
2017-Jun-16 04:44N 48°36' W 122°50'1 3.9
2017-Jun-16 04:29N 48°36' W 122°49'2 3.3
2017-Jun-16 04:00N 48°35' W 122°47'4 7.9
2017-Jun-16 03:29N 48°32' W 122°43'2 4.3
2017-Jun-16 02:56N 48°32' W 122°40'2 3.7
2017-Jun-16 02:30N 48°31' W 122°38'1 1.7
2017-Jun-16 01:58N 48°31' W 122°36'0 0.0
2017-Jun-16 01:28N 48°31' W 122°36'0 0.0
2017-Jun-16 00:58N 48°31' W 122°36'0 0.0
2017-Jun-16 00:28N 48°31' W 122°36'0 0.0
2017-Jun-15 23:58N 48°31' W 122°36'5 4.5
2017-Jun-15 22:49N 48°32' W 122°44'2 5.3
2017-Jun-15 22:30N 48°33' W 122°46'2 4.5
2017-Jun-15 22:00N 48°33' W 122°50'3 5.4
2017-Jun-15 21:30N 48°34' W 122°53'3 5.8
2017-Jun-15 21:00N 48°33' W 122°57'3 5.1
2017-Jun-15 20:30N 48°32' W 122°60'0 0.1
2017-Jun-15 20:00N 48°32' W 123°00'0 1.0
2017-Jun-15 19:30N 48°32' W 123°00'1 1.4
2017-Jun-15 19:00N 48°32' W 122°59'3 5.5
2017-Jun-15 18:30N 48°33' W 122°55'2 4.9
2017-Jun-15 18:00N 48°34' W 122°52'3 5.2
2017-Jun-15 17:23N 48°32' W 122°47'5 6.5
2017-Jun-15 16:39N 48°32' W 122°40'1 6.8
2017-Jun-15 16:29N 48°31' W 122°38'1 1.8
2017-Jun-15 16:00N 48°31' W 122°37'4 5.5
2017-Jun-15 15:19N 48°32' W 122°43'2 5.5
2017-Jun-15 14:54N 48°32' W 122°46'5 5.4
2017-Jun-15 14:00N 48°34' W 122°53'3 6.1
2017-Jun-15 13:30N 48°33' W 122°56'3 4.9
2017-Jun-15 12:58N 48°32' W 122°60'0 0.0
2017-Jun-15 12:25N 48°32' W 122°60'0 0.0
2017-Jun-15 11:55N 48°32' W 122°60'0 0.0
2017-Jun-15 11:28N 48°32' W 122°60'0 0.0
2017-Jun-15 10:58N 48°32' W 122°60'0 0.0
2017-Jun-15 10:28N 48°32' W 122°60'0 0.0
2017-Jun-15 09:58N 48°32' W 122°60'0 0.0
2017-Jun-15 09:25N 48°32' W 122°60'0 0.0
2017-Jun-15 08:58N 48°32' W 122°60'0 0.0
2017-Jun-15 08:28N 48°32' W 122°60'0 0.0
2017-Jun-15 07:58N 48°32' W 122°60'0 0.0
2017-Jun-15 07:28N 48°32' W 122°60'0 0.0
2017-Jun-15 06:58N 48°32' W 122°60'0 0.0
2017-Jun-15 06:25N 48°32' W 122°60'0 0.0
2017-Jun-15 05:58N 48°32' W 122°60'0 0.0
2017-Jun-15 05:28N 48°32' W 122°60'0 0.0
2017-Jun-15 04:58N 48°32' W 122°60'0 0.0
2017-Jun-15 04:28N 48°32' W 122°60'0 0.0
2017-Jun-15 03:58N 48°32' W 122°60'0 0.0
2017-Jun-15 03:28N 48°32' W 122°60'0 0.0
2017-Jun-15 02:58N 48°32' W 122°60'0 0.0
2017-Jun-15 02:28N 48°32' W 122°60'0 0.0
2017-Jun-15 01:59N 48°32' W 122°60'0 0.0
2017-Jun-15 01:28N 48°32' W 122°60'0 0.0
2017-Jun-15 00:55N 48°32' W 122°60'0 0.0
2017-Jun-15 00:28N 48°32' W 122°60'0 0.0
2017-Jun-14 23:55N 48°32' W 122°60'0 0.0
2017-Jun-14 23:28N 48°32' W 122°60'0 0.0
2017-Jun-14 22:55N 48°32' W 122°60'0 0.0
2017-Jun-14 22:28N 48°32' W 122°60'0 0.0
2017-Jun-14 21:58N 48°32' W 122°60'0 0.0
2017-Jun-14 21:25N 48°32' W 122°60'0 0.0
2017-Jun-14 20:58N 48°32' W 122°60'0 0.0
2017-Jun-14 20:27N 48°32' W 122°60'  
Track history (hours):
 
Tides and Currents Weather Stations Pressure Air Temp Water Temp Dewpoint Dewpoint Depression Visibility Wind Speed Wind Dir Waves Ship Positions

Pintail

Owner: Pintail Marine Services, Inc, Friday Harbor, WA. More information available from US FCC via Universal Licensing System and Coast Guard Vessel Documentation Center.

Last reported at 2017-Jun-24 17:00 UTC. Time now 2017-Jun-24 17:08 UTC.
Position N 48°32' W 122°60'.

Length 19 m.

Type: Towing. MMSI: 367460260.

Date/timePositionNaut miles runAvg speedWind from/ knotsBaromVisibWave heightAir tempDewpointWater temp
2017-Jun-24 17:00N 48°32' W 122°60'0 0.0
2017-Jun-24 16:30N 48°32' W 122°60'0 0.0
2017-Jun-24 16:00N 48°32' W 122°60'0 0.0
2017-Jun-24 15:27N 48°32' W 122°60'0 0.0
2017-Jun-24 15:00N 48°32' W 122°60'0 0.0
2017-Jun-24 14:00N 48°32' W 122°60'0 0.0
2017-Jun-24 13:30N 48°32' W 122°60'0 0.0
2017-Jun-24 12:51N 48°32' W 122°60'0 0.0
2017-Jun-24 12:30N 48°32' W 122°60'0 0.0
2017-Jun-24 12:00N 48°32' W 122°60'0 0.0
2017-Jun-24 11:30N 48°32' W 122°60'0 0.0
2017-Jun-24 11:00N 48°32' W 122°60'0 0.0
2017-Jun-24 10:30N 48°32' W 122°60'0 0.0
2017-Jun-24 09:57N 48°32' W 122°60'0 0.0
2017-Jun-24 09:27N 48°32' W 122°60'0 0.0
2017-Jun-24 09:00N 48°32' W 122°60'0 0.0
2017-Jun-24 08:24N 48°32' W 122°60'0 0.0
2017-Jun-24 08:00N 48°32' W 122°60'0 0.0
2017-Jun-24 07:28N 48°32' W 122°60'0 0.0
2017-Jun-24 06:58N 48°32' W 122°60'0 0.0
2017-Jun-24 06:28N 48°32' W 122°60'0 0.0
2017-Jun-24 05:58N 48°32' W 122°60'0 0.0
2017-Jun-24 05:28N 48°32' W 122°60'0 0.0
2017-Jun-24 04:58N 48°32' W 122°60'0 0.0
2017-Jun-24 04:28N 48°32' W 122°60'0 0.0
2017-Jun-24 03:58N 48°32' W 122°60'0 0.0
2017-Jun-24 03:28N 48°32' W 122°60'1 1.2
2017-Jun-24 03:00N 48°32' W 122°60'2 4.9
2017-Jun-24 02:30N 48°33' W 122°56'3 5.6
2017-Jun-24 02:00N 48°34' W 122°52'3 2.5
2017-Jun-24 00:41N 48°31' W 122°50'1 5.6
2017-Jun-24 00:29N 48°32' W 122°51'3 5.5
2017-Jun-24 00:00N 48°34' W 122°53'6 3.2
2017-Jun-23 22:10N 48°35' W 123°01'1 4.8
2017-Jun-23 21:59N 48°35' W 123°01'3 6.1
2017-Jun-23 21:30N 48°32' W 122°60'0 0.4
2017-Jun-23 21:00N 48°32' W 122°60'2 4.0
2017-Jun-23 20:30N 48°32' W 122°57'3 5.7
2017-Jun-23 20:00N 48°34' W 122°54'2 4.6
2017-Jun-23 19:30N 48°33' W 122°50'3 5.2
2017-Jun-23 18:59N 48°32' W 122°47'2 0.6
2017-Jun-23 16:04N 48°32' W 122°44'1 6.7
2017-Jun-23 15:59N 48°32' W 122°45'2 4.9
2017-Jun-23 15:28N 48°32' W 122°49'3 7.1
2017-Jun-23 15:00N 48°34' W 122°52'6 5.5
2017-Jun-23 14:00N 48°32' W 122°60'0 0.0
2017-Jun-23 13:29N 48°32' W 122°60'0 0.0
2017-Jun-23 12:59N 48°32' W 122°60'0 0.0
2017-Jun-23 12:29N 48°32' W 122°60'0 0.0
2017-Jun-23 11:59N 48°32' W 122°60'0 0.0
2017-Jun-23 11:29N 48°32' W 122°60'0 0.0
2017-Jun-23 10:59N 48°32' W 122°60'0 0.0
2017-Jun-23 10:29N 48°32' W 122°60'0 0.0
2017-Jun-23 09:59N 48°32' W 122°60'0 0.0
2017-Jun-23 09:29N 48°32' W 122°60'0 0.0
2017-Jun-23 08:59N 48°32' W 122°60'0 0.0
2017-Jun-23 08:29N 48°32' W 122°60'0 0.0
2017-Jun-23 07:59N 48°32' W 122°60'0 0.0
2017-Jun-23 07:29N 48°32' W 122°60'0 0.0
2017-Jun-23 06:59N 48°32' W 122°60'0 0.0
2017-Jun-23 06:29N 48°32' W 122°60'0 0.0
2017-Jun-23 05:59N 48°32' W 122°60'0 0.0
2017-Jun-23 05:29N 48°32' W 122°60'0 0.0
2017-Jun-23 04:56N 48°32' W 122°60'0 0.0
2017-Jun-23 04:29N 48°32' W 122°60'0 0.0
2017-Jun-23 03:59N 48°32' W 122°60'0 0.0
2017-Jun-23 03:26N 48°32' W 122°60'0 0.0
2017-Jun-23 02:59N 48°32' W 122°60'0 0.0
2017-Jun-23 02:29N 48°32' W 122°60'1 1.7
2017-Jun-23 02:00N 48°33' W 122°60'1 0.2
2017-Jun-22 20:19N 48°34' W 123°00'2 4.8
2017-Jun-22 19:56N 48°32' W 122°60'0 0.1
2017-Jun-22 19:29N 48°32' W 123°00'0 0.2
2017-Jun-22 18:57N 48°32' W 122°60'0 0.0
2017-Jun-22 18:30N 48°32' W 122°60'0 0.0
2017-Jun-22 17:57N 48°32' W 122°60'0 0.0
2017-Jun-22 17:30N 48°32' W 122°60'0 0.0
2017-Jun-22 17:00N 48°32' W 122°60'0 0.0
2017-Jun-22 16:30N 48°32' W 122°60'0 0.0
2017-Jun-22 16:00N 48°32' W 122°60'0 0.0
2017-Jun-22 15:30N 48°32' W 122°60'0 0.0
2017-Jun-22 15:00N 48°32' W 122°60'0 0.0
2017-Jun-22 14:30N 48°32' W 122°60'0 0.0
2017-Jun-22 13:30N 48°32' W 122°60'0 0.0
2017-Jun-22 13:00N 48°32' W 122°60'0 0.0
2017-Jun-22 12:30N 48°32' W 122°60'0 0.0
2017-Jun-22 12:00N 48°32' W 122°60'0 0.0
2017-Jun-22 11:30N 48°32' W 122°60'0 0.0
2017-Jun-22 11:00N 48°32' W 122°60'0 0.0
2017-Jun-22 10:30N 48°32' W 122°60'0 0.0
2017-Jun-22 10:00N 48°32' W 122°60'0 0.0
2017-Jun-22 09:30N 48°32' W 122°60'0 0.0
2017-Jun-22 09:00N 48°32' W 122°60'0 0.0
2017-Jun-22 08:29N 48°32' W 122°60'0 0.0
2017-Jun-22 08:00N 48°32' W 122°60'0 0.0
2017-Jun-22 07:30N 48°32' W 122°60'0 0.0
2017-Jun-22 07:00N 48°32' W 122°60'0 0.0
2017-Jun-22 06:30N 48°32' W 122°60'0 0.0
2017-Jun-22 06:00N 48°32' W 122°60'0 0.0
2017-Jun-22 05:30N 48°32' W 122°60'0 0.0
2017-Jun-22 04:57N 48°32' W 122°60'0 0.0
2017-Jun-22 04:27N 48°32' W 122°60'0 0.0
2017-Jun-22 04:01N 48°32' W 122°60'0 0.0
2017-Jun-22 03:28N 48°32' W 122°60'0 0.0
2017-Jun-22 02:58N 48°32' W 122°60'0 0.0
2017-Jun-22 02:31N 48°32' W 122°60'0 0.0
2017-Jun-22 02:01N 48°32' W 122°60'0 0.0
2017-Jun-22 01:28N 48°32' W 122°60'0 0.0
2017-Jun-22 01:01N 48°32' W 122°60'0 0.0
2017-Jun-22 00:28N 48°32' W 122°60'0 0.0
2017-Jun-21 23:58N 48°32' W 122°60'0 0.0
2017-Jun-21 23:25N 48°32' W 122°60'0 0.2
2017-Jun-21 22:58N 48°32' W 123°00'1 1.1
2017-Jun-21 22:30N 48°32' W 123°00'0 0.0
2017-Jun-21 22:00N 48°32' W 123°00'0 0.8
2017-Jun-21 21:29N 48°32' W 122°60'3 5.1
2017-Jun-21 21:00N 48°33' W 122°56'3 5.7
2017-Jun-21 20:30N 48°34' W 122°53'3 6.5
2017-Jun-21 20:00N 48°32' W 122°49'4 1.3
2017-Jun-21 16:55N 48°32' W 122°44'3 6.2
2017-Jun-21 16:28N 48°32' W 122°48'3 6.3
2017-Jun-21 15:59N 48°34' W 122°52'2 5.0
2017-Jun-21 15:30N 48°33' W 122°55'3 6.6
2017-Jun-21 15:00N 48°32' W 122°60'0 0.8
2017-Jun-21 14:28N 48°32' W 122°60'0 0.0
2017-Jun-21 13:28N 48°32' W 122°60'0 0.0
2017-Jun-21 12:58N 48°32' W 122°60'0 0.0
2017-Jun-21 12:28N 48°32' W 122°60'0 0.0
2017-Jun-21 11:58N 48°32' W 122°60'0 0.0
2017-Jun-21 11:28N 48°32' W 122°60'0 0.0
2017-Jun-21 10:58N 48°32' W 122°60'0 0.0
2017-Jun-21 10:28N 48°32' W 122°60'0 0.0
2017-Jun-21 09:58N 48°32' W 122°60'0 0.0
2017-Jun-21 09:28N 48°32' W 122°60'0 0.0
2017-Jun-21 08:58N 48°32' W 122°60'0 0.0
2017-Jun-21 08:28N 48°32' W 122°60'0 0.0
2017-Jun-21 07:55N 48°32' W 122°60'0 0.0
2017-Jun-21 07:30N 48°32' W 122°60'0 0.0
2017-Jun-21 06:57N 48°32' W 122°60'0 0.0
2017-Jun-21 06:30N 48°32' W 122°60'0 0.0
2017-Jun-21 05:59N 48°32' W 122°60'0 0.0
2017-Jun-21 05:29N 48°32' W 122°60'0 0.0
2017-Jun-21 04:59N 48°32' W 122°60'0 0.0
2017-Jun-21 04:29N 48°32' W 122°60'0 0.0
2017-Jun-21 03:56N 48°32' W 122°60'0 0.0
2017-Jun-21 03:23N 48°32' W 122°60'0 0.0
2017-Jun-21 02:59N 48°32' W 122°60'0 0.0
2017-Jun-21 02:29N 48°32' W 122°60'0 0.0
2017-Jun-21 01:59N 48°32' W 122°60'0 0.0
2017-Jun-21 01:29N 48°32' W 122°60'0 0.0
2017-Jun-21 00:59N 48°32' W 122°60'0 0.0
2017-Jun-21 00:29N 48°32' W 122°60'0 0.0
2017-Jun-20 23:59N 48°32' W 122°60'0 0.6
2017-Jun-20 23:30N 48°32' W 122°60'3 5.4
2017-Jun-20 23:00N 48°33' W 122°56'0 0.7
2017-Jun-20 22:25N 48°33' W 122°56'0 0.0
2017-Jun-20 21:58N 48°33' W 122°56'1 1.9
2017-Jun-20 21:30N 48°33' W 122°57'2 4.9
2017-Jun-20 21:00N 48°32' W 123°00'0 0.2
2017-Jun-20 20:28N 48°32' W 122°60'0 0.0
2017-Jun-20 19:58N 48°32' W 122°60'0 0.0
2017-Jun-20 19:28N 48°32' W 122°60'0 0.0
2017-Jun-20 18:55N 48°32' W 122°60'0 0.0
2017-Jun-20 18:28N 48°32' W 122°60'0 0.8
2017-Jun-20 17:56N 48°32' W 123°00'0 0.9
2017-Jun-20 17:30N 48°32' W 122°60'0 0.1
2017-Jun-20 16:58N 48°32' W 122°60'0 0.0
2017-Jun-20 16:28N 48°32' W 122°60'0 0.0
2017-Jun-20 15:55N 48°32' W 122°60'0 0.0
2017-Jun-20 15:28N 48°32' W 122°60'0 0.0
2017-Jun-20 14:58N 48°32' W 122°60'0 0.0
2017-Jun-20 14:28N 48°32' W 122°60'0 0.0
2017-Jun-20 13:28N 48°32' W 122°60'0 0.0
2017-Jun-20 12:58N 48°32' W 122°60'0 0.0
2017-Jun-20 12:25N 48°32' W 122°60'0 0.0
2017-Jun-20 11:58N 48°32' W 122°60'0 0.0
2017-Jun-20 11:28N 48°32' W 122°60'0 0.0
2017-Jun-20 10:58N 48°32' W 122°60'0 0.0
2017-Jun-20 10:28N 48°32' W 122°60'0 0.0
2017-Jun-20 09:58N 48°32' W 122°60'0 0.0
2017-Jun-20 09:28N 48°32' W 122°60'0 0.0
2017-Jun-20 08:55N 48°32' W 122°60'0 0.0
2017-Jun-20 08:28N 48°32' W 122°60'0 0.0
2017-Jun-20 07:58N 48°32' W 122°60'0 0.0
2017-Jun-20 07:28N 48°32' W 122°60'0 0.0
2017-Jun-20 06:55N 48°32' W 122°60'0 0.0
2017-Jun-20 06:28N 48°32' W 122°60'0 0.0
2017-Jun-20 05:58N 48°32' W 122°60'0 0.0
2017-Jun-20 05:28N 48°32' W 122°60'0 0.0
2017-Jun-20 04:58N 48°32' W 122°60'0 0.0
2017-Jun-20 04:28N 48°32' W 122°60'0 0.0
2017-Jun-20 03:58N 48°32' W 122°60'0 0.0
2017-Jun-20 03:28N 48°32' W 122°60'1 3.0
2017-Jun-20 03:00N 48°33' W 122°58'3 6.2
2017-Jun-20 02:28N 48°34' W 122°54'2 4.8
2017-Jun-20 01:59N 48°32' W 122°51'2 1.8
2017-Jun-20 01:03N 48°31' W 122°50'1 5.8
2017-Jun-20 00:58N 48°31' W 122°50'3 5.7
2017-Jun-20 00:28N 48°34' W 122°52'2 4.8
2017-Jun-20 00:00N 48°33' W 122°55'3 5.6
2017-Jun-19 23:31N 48°32' W 122°59'0 0.9
2017-Jun-19 22:57N 48°32' W 123°00'0 0.3
2017-Jun-19 22:30N 48°32' W 123°00'3 5.3
2017-Jun-19 22:00N 48°33' W 122°56'1 2.8
2017-Jun-19 21:30N 48°33' W 122°54'3 6.1
2017-Jun-19 21:00N 48°32' W 122°59'1 2.3
2017-Jun-19 20:30N 48°32' W 122°60'2 5.0
2017-Jun-19 20:00N 48°33' W 122°57'3 4.9
2017-Jun-19 19:20N 48°34' W 122°52'2 5.9
2017-Jun-19 19:00N 48°33' W 122°50'8 5.3
2017-Jun-19 17:31N 48°31' W 122°38'0 5.1
2017-Jun-19 17:28N 48°31' W 122°38'1 1.9
2017-Jun-19 16:59N 48°31' W 122°36'3 5.9
2017-Jun-19 16:30N 48°32' W 122°40'3 5.6
2017-Jun-19 15:59N 48°32' W 122°45'3 5.8
2017-Jun-19 15:29N 48°32' W 122°49'3 6.5
2017-Jun-19 15:00N 48°34' W 122°53'5 4.7
2017-Jun-19 14:00N 48°32' W 122°59'1 1.9
2017-Jun-19 13:30N 48°32' W 122°60'0 0.0
2017-Jun-19 12:48N 48°32' W 122°60'0 0.0
2017-Jun-19 12:31N 48°32' W 122°60'0 0.0
2017-Jun-19 11:55N 48°32' W 122°60'0 0.0
2017-Jun-19 11:31N 48°32' W 122°60'0 0.0
2017-Jun-19 10:58N 48°32' W 122°60'0 0.0
2017-Jun-19 10:31N 48°32' W 122°60'0 0.0
2017-Jun-19 10:01N 48°32' W 122°60'0 0.0
2017-Jun-19 09:25N 48°32' W 122°60'0 0.0
2017-Jun-19 08:58N 48°32' W 122°60'0 0.0
2017-Jun-19 08:28N 48°32' W 122°60'0 0.0
2017-Jun-19 07:58N 48°32' W 122°60'0 0.0
2017-Jun-19 07:28N 48°32' W 122°60'0 0.0
2017-Jun-19 06:58N 48°32' W 122°60'0 0.0
2017-Jun-19 06:28N 48°32' W 122°60'0 0.0
2017-Jun-19 05:58N 48°32' W 122°60'0 0.0
2017-Jun-19 05:28N 48°32' W 122°60'0 0.0
2017-Jun-19 04:58N 48°32' W 122°60'0 0.0
2017-Jun-19 04:28N 48°32' W 122°60'0 0.0
2017-Jun-19 03:58N 48°32' W 122°60'0 0.0
2017-Jun-19 03:28N 48°32' W 122°60'0 0.0
2017-Jun-19 02:55N 48°32' W 122°60'0 0.0
2017-Jun-19 02:28N 48°32' W 122°60'0 0.0
2017-Jun-19 01:58N 48°32' W 122°60'2 5.1
2017-Jun-19 01:30N 48°33' W 122°57'3 6.2
2017-Jun-19 01:00N 48°34' W 122°53'3 3.2
2017-Jun-18 23:58N 48°31' W 122°50'3 6.4
2017-Jun-18 23:27N 48°32' W 122°45'4 6.6
2017-Jun-18 22:51N 48°32' W 122°39'2 4.9
2017-Jun-18 22:29N 48°31' W 122°36'1 1.1
2017-Jun-18 21:58N 48°31' W 122°36'0 0.0
2017-Jun-18 21:28N 48°31' W 122°36'0 0.0
2017-Jun-18 20:58N 48°31' W 122°36'0 0.0
2017-Jun-18 20:28N 48°31' W 122°36'0 0.0
2017-Jun-18 19:58N 48°31' W 122°36'0 0.0
2017-Jun-18 19:28N 48°31' W 122°36'0 0.0
2017-Jun-18 18:58N 48°31' W 122°36'0 0.0
2017-Jun-18 18:28N 48°31' W 122°36'0 0.0
2017-Jun-18 17:58N 48°31' W 122°36'0 0.0
2017-Jun-18 17:28N 48°31' W 122°36'0 0.0
2017-Jun-18 16:58N 48°31' W 122°36'0 0.0
2017-Jun-18 16:28N 48°31' W 122°36'0 0.0
2017-Jun-18 15:58N 48°31' W 122°36'0 0.0
2017-Jun-18 15:28N 48°31' W 122°36'0 0.0
2017-Jun-18 14:46N 48°31' W 122°36'0 0.0
2017-Jun-18 13:58N 48°31' W 122°36'0 0.0
2017-Jun-18 13:28N 48°31' W 122°36'0 0.0
2017-Jun-18 12:58N 48°31' W 122°36'0 0.0
2017-Jun-18 12:28N 48°31' W 122°36'0 0.0
2017-Jun-18 11:58N 48°31' W 122°36'0 0.0
2017-Jun-18 11:16N 48°31' W 122°36'0 0.0
2017-Jun-18 10:58N 48°31' W 122°36'0 0.0
2017-Jun-18 10:28N 48°31' W 122°36'0 0.0
2017-Jun-18 09:58N 48°31' W 122°36'0 0.0
2017-Jun-18 09:28N 48°31' W 122°36'0 0.0
2017-Jun-18 08:58N 48°31' W 122°36'0 0.0
2017-Jun-18 08:28N 48°31' W 122°36'0 0.0
2017-Jun-18 07:58N 48°31' W 122°36'0 0.0
2017-Jun-18 07:28N 48°31' W 122°36'0 0.0
2017-Jun-18 06:58N 48°31' W 122°36'0 0.0
2017-Jun-18 06:28N 48°31' W 122°36'0 0.0
2017-Jun-18 05:58N 48°31' W 122°36'0 0.0
2017-Jun-18 05:28N 48°31' W 122°36'0 0.0
2017-Jun-18 04:58N 48°31' W 122°36'0 0.0
2017-Jun-18 04:28N 48°31' W 122°36'0 0.0
2017-Jun-18 03:58N 48°31' W 122°36'0 0.0
2017-Jun-18 03:26N 48°31' W 122°36'0 0.0
2017-Jun-18 02:56N 48°31' W 122°36'0 0.0
2017-Jun-18 02:26N 48°31' W 122°36'0 0.0
2017-Jun-18 01:56N 48°31' W 122°36'0 0.0
2017-Jun-18 01:26N 48°31' W 122°36'0 0.0
2017-Jun-18 00:56N 48°31' W 122°36'0 0.0
2017-Jun-18 00:26N 48°31' W 122°36'1 1.1
2017-Jun-17 23:55N 48°31' W 122°36'1 3.5
2017-Jun-17 23:30N 48°31' W 122°38'4 5.7
2017-Jun-17 22:50N 48°32' W 122°44'3 6.1
2017-Jun-17 22:25N 48°32' W 122°48'2 6.0
2017-Jun-17 22:00N 48°33' W 122°51'2 4.7
2017-Jun-17 21:29N 48°34' W 122°55'3 5.5
2017-Jun-17 21:00N 48°33' W 122°58'1 2.9
2017-Jun-17 20:30N 48°32' W 123°00'0 0.2
2017-Jun-17 19:58N 48°32' W 122°60'0 0.0
2017-Jun-17 19:28N 48°32' W 122°60'0 0.0
2017-Jun-17 18:58N 48°32' W 122°60'0 0.0
2017-Jun-17 18:30N 48°32' W 122°60'0 0.0
2017-Jun-17 18:00N 48°32' W 122°60'0 0.1
2017-Jun-17 17:30N 48°32' W 122°60'1 2.0
2017-Jun-17 17:00N 48°32' W 122°59'3 6.0
2017-Jun-17 16:29N 48°33' W 122°54'2 4.1
2017-Jun-17 16:00N 48°34' W 122°51'3 5.5
2017-Jun-17 15:30N 48°32' W 122°48'3 5.7
2017-Jun-17 15:00N 48°32' W 122°44'3 6.2
2017-Jun-17 14:30N 48°32' W 122°39'2 1.9
2017-Jun-17 13:25N 48°31' W 122°36'0 0.0
2017-Jun-17 12:55N 48°31' W 122°36'0 0.0
2017-Jun-17 12:25N 48°31' W 122°36'0 0.0
2017-Jun-17 11:55N 48°31' W 122°36'0 0.0
2017-Jun-17 11:25N 48°31' W 122°36'0 0.0
2017-Jun-17 10:55N 48°31' W 122°36'0 0.0
2017-Jun-17 10:25N 48°31' W 122°36'0 0.0
2017-Jun-17 09:55N 48°31' W 122°36'0 0.0
2017-Jun-17 09:25N 48°31' W 122°36'0 0.0
2017-Jun-17 08:55N 48°31' W 122°36'0 0.0
2017-Jun-17 08:25N 48°31' W 122°36'0 0.0
2017-Jun-17 07:55N 48°31' W 122°36'0 0.0
2017-Jun-17 07:25N 48°31' W 122°36'0 0.0
2017-Jun-17 06:55N 48°31' W 122°36'0 0.0
2017-Jun-17 06:25N 48°31' W 122°36'0 0.0
2017-Jun-17 05:55N 48°31' W 122°36'0 0.0
2017-Jun-17 05:25N 48°31' W 122°36'0 0.0
2017-Jun-17 04:55N 48°31' W 122°36'0 0.0
2017-Jun-17 04:13N 48°31' W 122°36'0 0.0
2017-Jun-17 03:55N 48°31' W 122°36'0 0.0
2017-Jun-17 03:25N 48°31' W 122°36'0 0.0
2017-Jun-17 02:55N 48°31' W 122°36'0 0.0
2017-Jun-17 02:19N 48°31' W 122°36'0 0.0
2017-Jun-17 01:49N 48°31' W 122°36'0 0.0
2017-Jun-17 01:25N 48°31' W 122°36'0 0.0
2017-Jun-17 00:55N 48°31' W 122°36'1 1.3
2017-Jun-17 00:29N 48°31' W 122°36'6 6.6
2017-Jun-16 23:31N 48°32' W 122°46'0 6.1
2017-Jun-16 23:29N 48°32' W 122°46'3 6.1
2017-Jun-16 23:00N 48°33' W 122°50'3 5.6
2017-Jun-16 22:30N 48°34' W 122°54'4 6.6
2017-Jun-16 21:55N 48°32' W 122°59'1 1.5
2017-Jun-16 21:28N 48°32' W 122°60'0 0.0
2017-Jun-16 20:58N 48°32' W 122°60'0 0.0
2017-Jun-16 20:28N 48°32' W 122°60'0 0.0
2017-Jun-16 19:58N 48°32' W 122°60'0 0.0
2017-Jun-16 19:28N 48°32' W 122°60'0 0.0
2017-Jun-16 18:58N 48°32' W 122°60'0 0.0
2017-Jun-16 18:28N 48°32' W 122°60'0 0.2
2017-Jun-16 18:00N 48°32' W 122°60'2 4.5
2017-Jun-16 17:30N 48°33' W 122°57'3 6.0
2017-Jun-16 17:00N 48°34' W 122°53'4 3.3
2017-Jun-16 15:48N 48°31' W 122°50'2 5.7
2017-Jun-16 15:30N 48°32' W 122°51'2 4.7
2017-Jun-16 15:00N 48°34' W 122°54'5 5.0
2017-Jun-16 14:00N 48°32' W 123°00'0 0.2
2017-Jun-16 13:28N 48°32' W 122°60'0 0.0
2017-Jun-16 12:58N 48°32' W 122°60'0 0.0
2017-Jun-16 12:28N 48°32' W 122°60'0 0.0
2017-Jun-16 11:58N 48°32' W 122°60'0 0.0
2017-Jun-16 11:28N 48°32' W 122°60'0 0.0
2017-Jun-16 10:58N 48°32' W 122°60'0 0.0
2017-Jun-16 10:28N 48°32' W 122°60'0 0.0
2017-Jun-16 09:58N 48°32' W 122°60'0 0.0
2017-Jun-16 09:22N 48°32' W 122°60'0 0.0
2017-Jun-16 08:58N 48°32' W 122°60'0 0.0
2017-Jun-16 08:28N 48°32' W 122°60'0 0.0
2017-Jun-16 07:58N 48°32' W 122°60'0 0.0
2017-Jun-16 07:28N 48°32' W 122°60'0 0.0
2017-Jun-16 06:58N 48°32' W 122°60'0 0.0
2017-Jun-16 06:28N 48°32' W 122°60'0 0.6
2017-Jun-16 06:00N 48°32' W 122°60'3 5.3
2017-Jun-16 05:30N 48°33' W 122°56'5 6.3
2017-Jun-16 04:44N 48°36' W 122°50'1 3.9
2017-Jun-16 04:29N 48°36' W 122°49'2 3.3
2017-Jun-16 04:00N 48°35' W 122°47'4 7.9
2017-Jun-16 03:29N 48°32' W 122°43'2 4.3
2017-Jun-16 02:56N 48°32' W 122°40'2 3.7
2017-Jun-16 02:30N 48°31' W 122°38'1 1.7
2017-Jun-16 01:58N 48°31' W 122°36'0 0.0
2017-Jun-16 01:28N 48°31' W 122°36'0 0.0
2017-Jun-16 00:58N 48°31' W 122°36'0 0.0
2017-Jun-16 00:28N 48°31' W 122°36'0 0.0
2017-Jun-15 23:58N 48°31' W 122°36'5 4.5
2017-Jun-15 22:49N 48°32' W 122°44'2 5.3
2017-Jun-15 22:30N 48°33' W 122°46'2 4.5
2017-Jun-15 22:00N 48°33' W 122°50'3 5.4
2017-Jun-15 21:30N 48°34' W 122°53'3 5.8
2017-Jun-15 21:00N 48°33' W 122°57'3 5.1
2017-Jun-15 20:30N 48°32' W 122°60'0 0.1
2017-Jun-15 20:00N 48°32' W 123°00'0 1.0
2017-Jun-15 19:30N 48°32' W 123°00'1 1.4
2017-Jun-15 19:00N 48°32' W 122°59'3 5.5
2017-Jun-15 18:30N 48°33' W 122°55'2 4.9
2017-Jun-15 18:00N 48°34' W 122°52'3 5.2
2017-Jun-15 17:23N 48°32' W 122°47'5 6.5
2017-Jun-15 16:39N 48°32' W 122°40'1 6.8
2017-Jun-15 16:29N 48°31' W 122°38'1 1.8
2017-Jun-15 16:00N 48°31' W 122°37'4 5.5
2017-Jun-15 15:19N 48°32' W 122°43'2 5.5
2017-Jun-15 14:54N 48°32' W 122°46'5 5.4
2017-Jun-15 14:00N 48°34' W 122°53'3 6.1
2017-Jun-15 13:30N 48°33' W 122°56'3 4.9
2017-Jun-15 12:58N 48°32' W 122°60'0 0.0
2017-Jun-15 12:25N 48°32' W 122°60'0 0.0
2017-Jun-15 11:55N 48°32' W 122°60'0 0.0
2017-Jun-15 11:28N 48°32' W 122°60'0 0.0
2017-Jun-15 10:58N 48°32' W 122°60'0 0.0
2017-Jun-15 10:28N 48°32' W 122°60'0 0.0
2017-Jun-15 09:58N 48°32' W 122°60'0 0.0
2017-Jun-15 09:25N 48°32' W 122°60'0 0.0
2017-Jun-15 08:58N 48°32' W 122°60'0 0.0
2017-Jun-15 08:28N 48°32' W 122°60'0 0.0
2017-Jun-15 07:58N 48°32' W 122°60'0 0.0
2017-Jun-15 07:28N 48°32' W 122°60'0 0.0
2017-Jun-15 06:58N 48°32' W 122°60'0 0.0
2017-Jun-15 06:25N 48°32' W 122°60'0 0.0
2017-Jun-15 05:58N 48°32' W 122°60'0 0.0
2017-Jun-15 05:28N 48°32' W 122°60'0 0.0
2017-Jun-15 04:58N 48°32' W 122°60'0 0.0
2017-Jun-15 04:28N 48°32' W 122°60'0 0.0
2017-Jun-15 03:58N 48°32' W 122°60'0 0.0
2017-Jun-15 03:28N 48°32' W 122°60'0 0.0
2017-Jun-15 02:58N 48°32' W 122°60'0 0.0
2017-Jun-15 02:28N 48°32' W 122°60'0 0.0
2017-Jun-15 01:59N 48°32' W 122°60'0 0.0
2017-Jun-15 01:28N 48°32' W 122°60'0 0.0
2017-Jun-15 00:55N 48°32' W 122°60'0 0.0
2017-Jun-15 00:28N 48°32' W 122°60'0 0.0
2017-Jun-14 23:55N 48°32' W 122°60'0 0.0
2017-Jun-14 23:28N 48°32' W 122°60'0 0.0
2017-Jun-14 22:55N 48°32' W 122°60'0 0.0
2017-Jun-14 22:28N 48°32' W 122°60'0 0.0
2017-Jun-14 21:58N 48°32' W 122°60'0 0.0
2017-Jun-14 21:25N 48°32' W 122°60'0 0.0
2017-Jun-14 20:58N 48°32' W 122°60'0 0.0
2017-Jun-14 20:27N 48°32' W 122°60'  

Dump ship's entire track history